createdAt,value
2017-09-25T00:00:21.150Z,15.93
2017-09-25T00:02:50.125Z,11.13
2017-09-25T00:05:18.466Z,9.47
2017-09-25T00:07:47.574Z,11.50
2017-09-25T00:10:16.066Z,15.57
2017-09-25T00:12:44.422Z,15.00
2017-09-25T00:15:13.063Z,16.67
2017-09-25T00:17:41.549Z,18.40
2017-09-25T00:20:09.903Z,19.20
2017-09-25T00:22:38.256Z,16.03
2017-09-25T00:25:06.656Z,14.53
2017-09-25T00:27:35.039Z,15.43
2017-09-25T00:30:03.470Z,16.80
2017-09-25T00:32:32.115Z,16.37
2017-09-25T00:35:00.510Z,13.10
2017-09-25T00:37:28.881Z,14.73
2017-09-25T00:39:57.293Z,13.13
2017-09-25T00:42:25.631Z,13.87
2017-09-25T00:44:54.016Z,12.30
2017-09-25T00:47:22.703Z,15.10
2017-09-25T00:49:51.053Z,14.40
2017-09-25T00:55:44.046Z,13.80
2017-09-25T00:58:12.526Z,11.43
2017-09-25T01:00:52.754Z,15.70
2017-09-25T01:06:29.455Z,18.17
2017-09-25T01:08:57.918Z,12.77
2017-09-25T01:11:26.353Z,13.70
2017-09-25T01:13:55.499Z,11.83
2017-09-25T01:16:24.035Z,13.70
2017-09-25T01:18:53.840Z,17.97
2017-09-25T01:21:22.295Z,17.93
2017-09-25T01:23:50.839Z,17.63
2017-09-25T01:26:19.988Z,18.60
2017-09-25T01:28:48.393Z,20.40
2017-09-25T01:31:16.813Z,19.00
2017-09-25T01:33:45.527Z,19.80
2017-09-25T01:36:13.959Z,16.30
2017-09-25T01:38:42.489Z,23.67
2017-09-25T01:41:10.868Z,22.53
2017-09-25T01:43:39.230Z,17.20
2017-09-25T01:46:07.866Z,17.60
2017-09-25T01:48:36.228Z,17.37
2017-09-25T01:51:04.849Z,16.33
2017-09-25T01:53:34.141Z,18.37
2017-09-25T01:56:02.543Z,16.20
2017-09-25T01:58:30.909Z,27.40
2017-09-25T02:01:00.101Z,20.97
2017-09-25T02:03:29.229Z,20.57
2017-09-25T02:05:57.601Z,18.53
2017-09-25T02:08:25.996Z,19.57
2017-09-25T02:10:54.385Z,21.33
2017-09-25T02:13:22.794Z,26.17
2017-09-25T02:15:51.486Z,17.70
2017-09-25T02:18:19.866Z,19.63
2017-09-25T02:20:49.011Z,22.23
2017-09-25T02:23:17.717Z,28.67
2017-09-25T02:25:46.067Z,20.80
2017-09-25T02:28:14.455Z,25.33
2017-09-25T02:30:43.980Z,23.17
2017-09-25T02:33:12.361Z,20.63
2017-09-25T02:35:40.857Z,22.10
2017-09-25T02:38:09.452Z,20.53
2017-09-25T02:40:38.617Z,25.50
2017-09-25T02:43:07.004Z,22.97
2017-09-25T02:45:35.492Z,20.93
2017-09-25T02:48:03.868Z,21.60
2017-09-25T02:50:32.296Z,24.10
2017-09-25T02:53:00.889Z,25.23
2017-09-25T02:55:30.014Z,21.20
2017-09-25T02:57:58.379Z,25.83
2017-09-25T03:00:26.780Z,19.53
2017-09-25T03:02:55.122Z,21.87
2017-09-25T03:05:23.533Z,24.80
2017-09-25T03:07:52.049Z,16.50
2017-09-25T03:10:21.164Z,18.00
2017-09-25T03:12:49.558Z,15.20
2017-09-25T03:15:18.009Z,14.67
2017-09-25T03:17:47.457Z,17.13
2017-09-25T03:20:15.819Z,16.00
2017-09-25T03:22:44.396Z,17.23
2017-09-25T03:25:12.824Z,15.00
2017-09-25T03:27:41.233Z,15.43
2017-09-25T03:30:10.582Z,13.80
2017-09-25T03:32:38.954Z,17.17
2017-09-25T03:35:07.318Z,15.57
2017-09-25T03:37:36.343Z,20.20
2017-09-25T03:40:04.717Z,19.10
2017-09-25T03:42:33.107Z,18.73
2017-09-25T03:45:01.607Z,17.10
2017-09-25T03:47:29.998Z,13.60
2017-09-25T03:49:58.403Z,18.83
2017-09-25T03:52:26.994Z,18.90
2017-09-25T03:54:55.450Z,19.20
2017-09-25T03:57:24.581Z,21.57
2017-09-25T03:59:53.181Z,17.43
2017-09-25T04:02:22.340Z,18.33
2017-09-25T04:04:50.693Z,16.77
2017-09-25T04:07:19.094Z,20.03
2017-09-25T04:09:47.446Z,24.23
2017-09-25T04:12:15.829Z,20.20
2017-09-25T04:14:44.433Z,18.27
2017-09-25T04:17:13.570Z,29.97
2017-09-25T04:19:42.231Z,21.40
2017-09-25T04:22:11.578Z,21.60
2017-09-25T04:24:39.944Z,19.47
2017-09-25T04:27:09.160Z,23.40
2017-09-25T04:29:37.851Z,21.00
2017-09-25T04:32:06.827Z,19.67
2017-09-25T04:34:35.184Z,21.70
2017-09-25T04:37:03.583Z,22.30
2017-09-25T04:39:32.077Z,22.53
2017-09-25T04:42:00.632Z,19.90
2017-09-25T04:44:29.316Z,22.70
2017-09-25T04:46:57.724Z,29.13
2017-09-25T04:49:26.947Z,20.33
2017-09-25T04:51:56.535Z,19.53
2017-09-25T04:54:24.939Z,21.33
2017-09-25T04:56:53.412Z,26.03
2017-09-25T04:59:22.157Z,26.30
2017-09-25T05:01:50.534Z,20.33
2017-09-25T05:04:18.916Z,21.50
2017-09-25T05:06:47.322Z,21.60
2017-09-25T05:09:15.683Z,20.33
2017-09-25T05:11:44.028Z,27.53
2017-09-25T05:14:12.443Z,21.17
2017-09-25T05:16:40.821Z,19.73
2017-09-25T05:19:09.191Z,17.87
2017-09-25T05:21:37.959Z,21.30
2017-09-25T05:24:06.428Z,21.40
2017-09-25T05:26:34.782Z,21.13
2017-09-25T05:29:04.160Z,19.90
2017-09-25T05:31:34.930Z,19.13
2017-09-25T05:34:04.197Z,20.97
2017-09-25T05:36:33.171Z,25.30
2017-09-25T05:39:01.655Z,28.37
2017-09-25T05:41:30.435Z,20.80
2017-09-25T05:43:59.124Z,22.73
2017-09-25T05:46:27.573Z,16.87
2017-09-25T05:48:55.973Z,22.20
2017-09-25T05:51:24.595Z,19.93
2017-09-25T05:53:53.174Z,20.37
2017-09-25T05:56:22.383Z,20.57
2017-09-25T05:58:51.848Z,19.90
2017-09-25T06:01:21.495Z,15.40
2017-09-25T06:03:50.846Z,18.40
2017-09-25T06:06:21.736Z,18.50
2017-09-25T06:08:50.157Z,18.53
2017-09-25T06:11:18.538Z,16.97
2017-09-25T06:13:47.131Z,17.00
2017-09-25T06:16:15.484Z,15.93
2017-09-25T06:18:43.869Z,16.10
2017-09-25T06:21:13.031Z,18.60
2017-09-25T06:23:44.051Z,15.03
2017-09-25T06:26:12.562Z,14.97
2017-09-25T06:28:41.222Z,18.03
2017-09-25T06:31:09.623Z,14.40
2017-09-25T06:33:38.403Z,15.50
2017-09-25T06:36:06.900Z,20.40
2017-09-25T06:38:35.304Z,18.97
2017-09-25T06:41:03.675Z,15.27
2017-09-25T06:43:32.372Z,18.03
2017-09-25T06:46:00.844Z,19.03
2017-09-25T06:48:29.259Z,20.33
2017-09-25T06:50:58.035Z,20.70
2017-09-25T06:53:27.620Z,15.33
2017-09-25T06:55:58.270Z,23.07
2017-09-25T06:58:26.986Z,19.10
2017-09-25T07:00:56.317Z,16.60
2017-09-25T07:03:24.747Z,17.53
2017-09-25T07:05:53.192Z,20.10
2017-09-25T07:08:21.648Z,21.00
2017-09-25T07:10:50.042Z,18.50
2017-09-25T07:13:18.634Z,16.87
2017-09-25T07:15:47.026Z,17.10
2017-09-25T07:18:15.474Z,23.87
2017-09-25T07:20:44.744Z,15.87
2017-09-25T07:23:13.271Z,18.97
2017-09-25T07:25:42.082Z,17.53
2017-09-25T07:28:10.953Z,16.87
2017-09-25T07:30:39.392Z,14.53
2017-09-25T07:33:07.825Z,18.90
2017-09-25T07:35:36.310Z,21.00
2017-09-25T07:38:04.718Z,17.83
2017-09-25T07:40:33.123Z,14.50
2017-09-25T07:43:01.613Z,16.30
2017-09-25T07:45:30.611Z,18.07
2017-09-25T07:47:59.107Z,15.07
2017-09-25T07:50:27.811Z,16.53
2017-09-25T07:52:56.275Z,13.13
2017-09-25T07:55:24.681Z,16.50
2017-09-25T07:57:53.232Z,13.57
2017-09-25T08:00:21.754Z,13.50
2017-09-25T08:02:50.815Z,12.00
2017-09-25T08:05:19.291Z,16.30
2017-09-25T08:07:47.723Z,14.17
2017-09-25T08:10:16.850Z,14.53
2017-09-25T08:12:45.401Z,14.00
2017-09-25T08:15:14.008Z,14.27
2017-09-25T08:17:43.217Z,15.10
2017-09-25T08:20:11.896Z,13.00
2017-09-25T08:22:41.009Z,14.07
2017-09-25T08:25:09.389Z,18.50
2017-09-25T08:27:38.482Z,11.03
2017-09-25T08:30:06.928Z,17.10
2017-09-25T08:32:35.727Z,13.33
2017-09-25T08:35:04.607Z,13.10
2017-09-25T08:37:33.000Z,10.67
2017-09-25T08:40:03.329Z,13.50
2017-09-25T08:42:32.781Z,9.77
2017-09-25T08:45:01.769Z,9.97
2017-09-25T08:47:30.500Z,9.70
2017-09-25T08:50:00.239Z,9.20
2017-09-25T08:52:29.688Z,13.50
2017-09-25T08:54:58.158Z,13.27
2017-09-25T08:57:27.209Z,14.07
2017-09-25T08:59:56.465Z,12.13
2017-09-25T09:02:24.884Z,13.50
2017-09-25T09:04:54.614Z,13.47
2017-09-25T09:07:23.093Z,10.00
2017-09-25T09:09:52.193Z,13.63
2017-09-25T09:12:20.869Z,11.40
2017-09-25T09:14:52.844Z,10.40
2017-09-25T09:17:22.177Z,13.43
2017-09-25T09:19:51.170Z,15.40
2017-09-25T09:22:19.619Z,15.00
2017-09-25T09:24:48.670Z,10.87
2017-09-25T09:27:17.802Z,12.90
2017-09-25T09:29:46.628Z,12.00
2017-09-25T09:32:15.024Z,14.00
2017-09-25T09:34:43.433Z,10.80
2017-09-25T09:37:12.731Z,11.70
2017-09-25T09:39:41.173Z,8.83
2017-09-25T09:42:10.410Z,10.63
2017-09-25T09:44:38.827Z,6.40
2017-09-25T09:47:07.228Z,9.10
2017-09-25T09:49:36.184Z,8.00
2017-09-25T09:52:06.473Z,11.77
2017-09-25T09:54:35.708Z,7.00
2017-09-25T09:57:04.196Z,8.60
2017-09-25T09:59:33.396Z,7.57
2017-09-25T10:02:02.150Z,7.50
2017-09-25T10:04:32.240Z,5.93
2017-09-25T10:07:00.814Z,8.40
2017-09-25T10:09:29.375Z,4.30
2017-09-25T10:11:57.766Z,3.50
2017-09-25T10:14:26.164Z,4.67
2017-09-25T10:16:54.635Z,6.40
2017-09-25T10:19:23.046Z,5.63
2017-09-25T10:21:52.228Z,7.40
2017-09-25T10:24:20.846Z,6.90
2017-09-25T10:26:49.316Z,6.80
2017-09-25T10:29:18.476Z,5.90
2017-09-25T10:31:47.538Z,9.50
2017-09-25T10:34:16.805Z,4.20
2017-09-25T10:36:45.445Z,6.60
2017-09-25T10:39:15.390Z,3.73
2017-09-25T10:41:45.261Z,7.10
2017-09-25T10:44:13.786Z,12.20
2017-09-25T10:46:42.984Z,7.00
2017-09-25T10:49:12.122Z,7.60
2017-09-25T10:51:40.690Z,9.13
2017-09-25T10:54:09.469Z,7.67
2017-09-25T10:56:38.620Z,5.87
2017-09-25T10:59:07.013Z,5.60
2017-09-25T11:01:35.503Z,5.77
2017-09-25T11:04:09.107Z,5.63
2017-09-25T11:06:41.274Z,5.00
2017-09-25T11:09:10.628Z,5.40
2017-09-25T11:11:39.069Z,6.40
2017-09-25T11:14:09.044Z,8.53
2017-09-25T11:16:37.499Z,5.70
2017-09-25T11:19:06.863Z,5.43
2017-09-25T11:21:36.172Z,7.43
2017-09-25T11:24:04.638Z,7.77
2017-09-25T11:26:34.790Z,8.70
2017-09-25T11:29:03.889Z,12.00
2017-09-25T11:31:33.391Z,8.00
2017-09-25T11:34:01.804Z,8.00
2017-09-25T11:36:31.657Z,14.20
2017-09-25T11:39:00.954Z,6.43
2017-09-25T11:41:32.323Z,11.63
2017-09-25T11:44:01.870Z,15.13
2017-09-25T11:46:30.237Z,9.17
2017-09-25T11:48:58.838Z,8.83
2017-09-25T11:51:27.267Z,8.63
2017-09-25T11:53:59.009Z,12.00
2017-09-25T11:56:28.849Z,8.20
2017-09-25T11:58:57.269Z,7.20
2017-09-25T12:01:25.646Z,9.97
2017-09-25T12:03:54.265Z,8.23
2017-09-25T12:06:24.145Z,8.37
2017-09-25T12:08:52.574Z,11.93
2017-09-25T12:11:21.729Z,8.00
2017-09-25T12:13:50.116Z,6.33
2017-09-25T12:16:59.158Z,6.80
2017-09-25T12:19:30.101Z,9.20
2017-09-25T12:22:00.298Z,7.47
2017-09-25T12:24:29.537Z,9.80
2017-09-25T12:26:58.846Z,5.63
2017-09-25T12:29:28.537Z,10.43
2017-09-25T12:32:01.008Z,12.70
2017-09-25T12:34:31.293Z,8.20
2017-09-25T12:37:01.228Z,8.07
2017-09-25T12:39:29.661Z,7.20
2017-09-25T12:42:00.258Z,8.20
2017-09-25T12:44:28.693Z,6.43
2017-09-25T12:46:57.096Z,6.90
2017-09-25T12:49:26.617Z,8.10
2017-09-25T12:51:56.135Z,6.30
2017-09-25T12:54:26.752Z,5.80
2017-09-25T12:56:55.979Z,7.57
2017-09-25T12:59:26.198Z,8.07
2017-09-25T13:01:57.114Z,7.90
2017-09-25T13:04:26.355Z,6.03
2017-09-25T13:06:54.723Z,7.13
2017-09-25T13:09:23.211Z,8.13
2017-09-25T13:11:52.212Z,10.50
2017-09-25T13:14:20.626Z,9.83
2017-09-25T13:16:50.987Z,10.03
2017-09-25T13:19:20.320Z,11.07
2017-09-25T13:21:49.937Z,14.50
2017-09-25T13:24:20.131Z,12.53
2017-09-25T13:26:48.570Z,9.53
2017-09-25T13:29:18.546Z,14.93
2017-09-25T13:31:47.763Z,11.17
2017-09-25T13:34:16.249Z,10.80
2017-09-25T13:36:44.625Z,15.33
2017-09-25T13:39:13.080Z,10.87
2017-09-25T13:41:42.132Z,14.67
2017-09-25T13:44:11.500Z,14.87
2017-09-25T13:46:41.602Z,12.43
2017-09-25T13:49:10.029Z,10.67
2017-09-25T13:51:39.209Z,14.63
2017-09-25T13:54:07.679Z,14.90
2017-09-25T13:56:36.466Z,15.20
2017-09-25T14:04:14.514Z,14.53
2017-09-25T14:06:43.065Z,14.20
2017-09-25T14:09:12.437Z,13.03
2017-09-25T14:11:41.937Z,15.87
2017-09-25T14:14:11.502Z,14.53
2017-09-25T14:16:40.172Z,16.20
2017-09-25T14:19:08.559Z,17.73
2017-09-25T14:21:37.001Z,16.40
2017-09-25T14:24:05.488Z,15.87
2017-09-25T14:26:34.689Z,21.97
2017-09-25T14:29:03.838Z,19.07
2017-09-25T14:31:32.280Z,15.53
2017-09-25T14:34:01.591Z,25.50
2017-09-25T14:36:30.571Z,15.93
2017-09-25T14:39:00.776Z,23.03
2017-09-25T14:41:31.445Z,17.73
2017-09-25T14:44:00.008Z,20.03
2017-09-25T14:46:28.531Z,19.83
2017-09-25T14:48:58.251Z,19.87
2017-09-25T14:51:28.461Z,18.63
2017-09-25T14:53:58.498Z,16.23
2017-09-25T14:56:26.973Z,19.00
2017-09-25T14:58:56.471Z,21.50
2017-09-25T15:01:26.068Z,20.30
2017-09-25T15:03:55.408Z,19.07
2017-09-25T15:06:24.096Z,24.13
2017-09-25T15:08:53.252Z,18.43
2017-09-25T15:11:22.535Z,16.73
2017-09-25T15:13:51.570Z,19.67
2017-09-25T15:16:20.918Z,17.43
2017-09-25T15:18:50.355Z,24.30
2017-09-25T15:21:18.906Z,23.47
2017-09-25T15:23:49.385Z,21.50
2017-09-25T15:26:21.669Z,18.90
2017-09-25T15:28:50.602Z,20.07
2017-09-25T15:31:19.009Z,21.50
2017-09-25T15:33:48.018Z,20.43
2017-09-25T15:36:17.178Z,22.87
2017-09-25T15:38:45.595Z,19.73
2017-09-25T15:41:15.843Z,23.00
2017-09-25T15:43:44.240Z,20.30
2017-09-25T15:46:12.617Z,21.17
2017-09-25T15:48:41.281Z,22.43
2017-09-25T15:51:09.686Z,17.77
2017-09-25T15:53:38.092Z,23.43
2017-09-25T15:56:06.532Z,19.40
2017-09-25T15:58:36.492Z,20.57
2017-09-25T16:01:05.140Z,20.07
2017-09-25T16:03:33.558Z,24.50
2017-09-25T16:06:01.929Z,22.77
2017-09-25T16:08:30.381Z,19.77
2017-09-25T16:10:59.079Z,21.63
2017-09-25T16:13:27.875Z,28.20
2017-09-25T16:15:56.254Z,21.83
2017-09-25T16:18:25.294Z,28.43
2017-09-25T16:20:53.740Z,28.23
2017-09-25T16:23:22.907Z,22.07
2017-09-25T16:25:51.466Z,24.03
2017-09-25T16:28:19.853Z,23.37
2017-09-25T16:30:49.002Z,27.97
2017-09-25T16:33:18.340Z,24.73
2017-09-25T16:35:48.530Z,23.77
2017-09-25T16:38:18.561Z,20.13
2017-09-25T16:40:47.103Z,23.60
2017-09-25T16:43:16.126Z,21.33
2017-09-25T16:45:45.998Z,24.07
2017-09-25T16:48:14.802Z,26.80
2017-09-25T16:50:44.009Z,25.20
2017-09-25T16:53:14.207Z,22.20
2017-09-25T16:55:42.819Z,25.33
2017-09-25T16:58:11.221Z,27.10
2017-09-25T17:00:41.362Z,25.90
2017-09-25T17:03:10.107Z,34.03
2017-09-25T17:05:38.550Z,29.23
2017-09-25T17:08:06.994Z,31.83
2017-09-25T17:10:36.393Z,30.60
2017-09-25T17:13:05.548Z,29.97
2017-09-25T17:15:35.108Z,35.83
2017-09-25T17:18:04.492Z,33.37
2017-09-25T17:20:33.117Z,31.87
2017-09-25T17:23:02.263Z,42.23
2017-09-25T17:25:30.940Z,27.87
2017-09-25T17:27:59.308Z,33.13
2017-09-25T17:30:27.699Z,29.37
2017-09-25T17:32:56.744Z,26.50
2017-09-25T17:35:25.193Z,30.57
2017-09-25T17:37:53.608Z,32.97
2017-09-25T17:40:22.006Z,28.50
2017-09-25T17:42:50.421Z,28.40
2017-09-25T17:45:19.822Z,28.80
2017-09-25T17:47:48.327Z,27.83
2017-09-25T17:50:17.459Z,35.30
2017-09-25T17:52:46.702Z,34.17
2017-09-25T17:55:15.871Z,41.07
2017-09-25T17:57:44.356Z,34.30
2017-09-25T18:00:12.765Z,32.60
2017-09-25T18:02:41.208Z,38.97
2017-09-25T18:05:09.835Z,30.97
2017-09-25T18:07:39.020Z,36.93
2017-09-25T18:10:08.214Z,31.97
2017-09-25T18:12:37.359Z,41.03
2017-09-25T18:15:05.723Z,32.27
2017-09-25T18:17:34.244Z,39.23
2017-09-25T18:20:02.607Z,33.53
2017-09-25T18:22:31.038Z,34.63
2017-09-25T18:25:00.210Z,34.53
2017-09-25T18:27:31.146Z,33.23
2017-09-25T18:29:59.600Z,39.17
2017-09-25T18:32:28.430Z,37.03
2017-09-25T18:34:56.839Z,37.50
2017-09-25T18:37:25.240Z,36.60
2017-09-25T18:39:53.865Z,41.13
2017-09-25T18:42:22.977Z,35.10
2017-09-25T18:44:52.279Z,40.53
2017-09-25T18:47:21.235Z,44.80
2017-09-25T18:49:49.608Z,58.93
2017-09-25T18:52:18.803Z,38.10
2017-09-25T18:54:47.284Z,36.03
2017-09-25T18:57:15.660Z,43.30
2017-09-25T18:59:44.071Z,40.20
2017-09-25T19:02:12.676Z,42.60
2017-09-25T19:04:41.834Z,46.20
2017-09-25T19:07:10.584Z,47.43
2017-09-25T19:09:39.080Z,49.20
2017-09-25T19:12:07.925Z,45.87
2017-09-25T19:14:37.121Z,48.90
2017-09-25T19:17:05.672Z,53.53
2017-09-25T19:19:34.060Z,52.00
2017-09-25T19:22:02.453Z,51.27
2017-09-25T19:24:31.327Z,46.70
2017-09-25T19:26:59.690Z,50.73
2017-09-25T19:29:28.081Z,45.00
2017-09-25T19:31:56.582Z,51.80
2017-09-25T19:34:24.942Z,55.27
2017-09-25T19:36:54.183Z,48.27
2017-09-25T19:39:22.610Z,50.00
2017-09-25T19:41:50.970Z,54.20
2017-09-25T19:47:13.725Z,47.57
2017-09-25T19:49:47.812Z,50.43
2017-09-25T19:52:17.183Z,44.27
2017-09-25T19:55:02.358Z,46.10
2017-09-25T19:57:43.716Z,50.50
2017-09-25T20:00:12.175Z,43.07
2017-09-25T20:02:40.598Z,44.73
2017-09-25T20:05:09.476Z,45.43
2017-09-25T20:07:38.270Z,44.00
2017-09-25T20:10:07.531Z,49.30
2017-09-25T20:12:35.955Z,60.30
2017-09-25T20:15:04.363Z,64.80
2017-09-25T20:17:33.534Z,65.53
2017-09-25T20:20:02.163Z,68.23
2017-09-25T20:22:30.549Z,55.53
2017-09-25T20:24:59.019Z,63.13
2017-09-25T20:27:27.442Z,60.90
2017-09-25T20:29:55.810Z,62.10
2017-09-25T20:32:24.233Z,51.70
2017-09-25T20:34:53.879Z,48.43
2017-09-25T20:37:22.287Z,41.67
2017-09-25T20:39:50.673Z,51.40
2017-09-25T20:45:34.054Z,71.43
2017-09-25T20:48:03.438Z,64.70
2017-09-25T20:50:31.848Z,61.47
2017-09-25T20:53:01.005Z,67.30
2017-09-25T20:55:29.533Z,61.33
2017-09-25T20:57:58.671Z,71.93
2017-09-25T21:00:27.284Z,62.00
2017-09-25T21:02:55.931Z,76.40
2017-09-25T21:05:24.500Z,58.80
2017-09-25T21:07:52.959Z,61.77
2017-09-25T21:10:22.220Z,63.97
2017-09-25T21:12:50.711Z,67.80
2017-09-25T21:15:19.109Z,60.13
2017-09-25T21:17:47.777Z,68.07
2017-09-25T21:20:16.153Z,60.47
2017-09-25T21:22:44.550Z,67.70
2017-09-25T21:25:14.577Z,61.43
2017-09-25T21:27:45.845Z,63.90
2017-09-25T21:30:14.302Z,61.77
2017-09-25T21:32:43.063Z,61.63
2017-09-25T21:35:11.433Z,66.60
2017-09-25T21:37:39.803Z,56.37
2017-09-25T21:40:08.413Z,56.67
2017-09-25T21:42:37.575Z,57.47
2017-09-25T21:45:05.931Z,56.00
2017-09-25T21:47:34.437Z,54.33
2017-09-25T21:50:02.841Z,54.63
2017-09-25T21:52:31.230Z,59.70
2017-09-25T21:55:00.644Z,56.60
2017-09-25T21:57:29.033Z,56.13
2017-09-25T21:59:57.416Z,60.57
2017-09-25T22:02:25.811Z,49.30
2017-09-25T22:04:54.222Z,51.80
2017-09-25T22:07:22.688Z,60.73
2017-09-25T22:09:51.705Z,60.27
2017-09-25T22:12:20.082Z,65.60
2017-09-25T22:14:48.433Z,56.57
2017-09-25T22:17:16.968Z,56.80
2017-09-25T22:19:46.184Z,58.57
2017-09-25T22:22:14.556Z,59.77
2017-09-25T22:24:43.929Z,67.50
2017-09-25T22:27:12.392Z,60.77
2017-09-25T22:29:40.767Z,57.37
2017-09-25T22:32:09.292Z,80.07
2017-09-25T22:34:38.471Z,47.73
2017-09-25T22:37:06.892Z,57.10
2017-09-25T22:39:35.951Z,51.80
2017-09-25T22:42:04.432Z,59.67
2017-09-25T22:44:34.572Z,62.93
2017-09-25T22:47:03.017Z,55.67
2017-09-25T22:49:31.379Z,50.37
2017-09-25T22:51:59.859Z,68.70
2017-09-25T22:54:28.316Z,62.60
2017-09-25T22:56:56.709Z,66.33
2017-09-25T22:59:25.090Z,56.20
2017-09-25T23:01:53.525Z,64.90
2017-09-25T23:04:22.675Z,61.40
2017-09-25T23:06:51.043Z,65.93
2017-09-25T23:09:23.497Z,60.37
2017-09-25T23:11:52.540Z,57.27
2017-09-25T23:14:20.911Z,68.13
2017-09-25T23:16:49.305Z,57.00
2017-09-25T23:19:17.656Z,60.53
2017-09-25T23:21:46.024Z,59.77
2017-09-25T23:24:14.568Z,67.10
2017-09-25T23:26:43.705Z,59.37
2017-09-25T23:29:12.864Z,67.93
2017-09-25T23:31:51.944Z,54.70
2017-09-25T23:34:20.373Z,80.73
2017-09-25T23:36:48.732Z,69.47
2017-09-25T23:39:17.170Z,71.53
2017-09-25T23:41:45.515Z,62.40
2017-09-25T23:44:13.896Z,58.77
2017-09-25T23:46:42.513Z,71.13
2017-09-25T23:49:10.861Z,65.23
2017-09-25T23:51:39.217Z,73.33
2017-09-25T23:54:08.355Z,77.57
2017-09-25T23:56:36.723Z,57.47
2017-09-25T23:59:05.287Z,69.67
